Mediterranean Sea — WDG229 — position and weather

sailwx.info

Track history (hours):
 
Tides and Currents Weather Stations Pressure Air Temp Water Temp Dewpoint Dewpoint Depression Visibility Wind Speed Wind Dir Waves Ship Positions

Mediterranean Sea

Last reported at 2015-Jul-06 00:34 UTC. Time now 2015-Jul-06 01:00 UTC.
Position N 38°02' W 074°58'.

Length 33 m; draft 6 m.

Type: Towing. MMSI: 367010390.

Date/timePositionNaut miles runAvg speedWind from/ knotsBaromVisibWave heightAir tempDewpointWater temp
2015-Jul-06 00:34N 38°02' W 074°58'  
2015-Jul-01 23:33N 27°01' W 079°58'1111.1
2015-Jul-01 22:33N 26°50' W 079°57'1110.4
2015-Jul-01 21:28N 26°38' W 079°58'910.4
2015-Jul-01 20:34N 26°29' W 079°59'10 9.7
2015-Jul-01 19:34N 26°19' W 080°01'9 9.2
2015-Jul-01 18:33N 26°10' W 080°02'6 5.8
2015-Jul-01 17:33N 26°06' W 080°06'1 1.0
2015-Jul-01 16:34N 26°06' W 080°07'0 0.0
2015-Jul-01 15:33N 26°06' W 080°07'0 0.0
2015-Jul-01 14:33N 26°05' W 080°07'0 0.0
2015-Jul-01 13:33N 26°05' W 080°07'0 0.0
2015-Jul-01 12:33N 26°05' W 080°07'0 0.0
2015-Jul-01 11:33N 26°05' W 080°07'0 0.0
2015-Jul-01 10:33N 26°05' W 080°07'0 0.0
2015-Jul-01 09:33N 26°05' W 080°07'0 0.0
2015-Jul-01 08:34N 26°05' W 080°07'0 0.0
2015-Jul-01 07:34N 26°05' W 080°07'0 0.0
2015-Jul-01 06:33N 26°05' W 080°07'0 0.0
2015-Jul-01 05:34N 26°05' W 080°07'0 0.0
2015-Jul-01 04:33N 26°05' W 080°07'3 3.3
2015-Jul-01 03:33N 26°07' W 080°04'1212.3
2015-Jul-01 02:33N 26°19' W 080°02'1110.9
2015-Jul-01 01:33N 26°30' W 080°01'10 9.5
2015-Jul-01 00:33N 26°40' W 079°60'9 8.8
2015-Jun-30 23:30N 26°49' W 079°59'9 9.0
2015-Jun-30 22:33N 26°58' W 079°60'  
Track history (hours):
 
Tides and Currents Weather Stations Pressure Air Temp Water Temp Dewpoint Dewpoint Depression Visibility Wind Speed Wind Dir Waves Ship Positions

Mediterranean Sea

Last reported at 2015-Jul-06 00:34 UTC. Time now 2015-Jul-06 01:00 UTC.
Position N 38°02' W 074°58'.

Length 33 m; draft 6 m.

Type: Towing. MMSI: 367010390.

Date/timePositionNaut miles runAvg speedWind from/ knotsBaromVisibWave heightAir tempDewpointWater temp
2015-Jul-06 00:34N 38°02' W 074°58'  
2015-Jul-01 23:33N 27°01' W 079°58'1111.1
2015-Jul-01 22:33N 26°50' W 079°57'1110.4
2015-Jul-01 21:28N 26°38' W 079°58'910.4
2015-Jul-01 20:34N 26°29' W 079°59'10 9.7
2015-Jul-01 19:34N 26°19' W 080°01'9 9.2
2015-Jul-01 18:33N 26°10' W 080°02'6 5.8
2015-Jul-01 17:33N 26°06' W 080°06'1 1.0
2015-Jul-01 16:34N 26°06' W 080°07'0 0.0
2015-Jul-01 15:33N 26°06' W 080°07'0 0.0
2015-Jul-01 14:33N 26°05' W 080°07'0 0.0
2015-Jul-01 13:33N 26°05' W 080°07'0 0.0
2015-Jul-01 12:33N 26°05' W 080°07'0 0.0
2015-Jul-01 11:33N 26°05' W 080°07'0 0.0
2015-Jul-01 10:33N 26°05' W 080°07'0 0.0
2015-Jul-01 09:33N 26°05' W 080°07'0 0.0
2015-Jul-01 08:34N 26°05' W 080°07'0 0.0
2015-Jul-01 07:34N 26°05' W 080°07'0 0.0
2015-Jul-01 06:33N 26°05' W 080°07'0 0.0
2015-Jul-01 05:34N 26°05' W 080°07'0 0.0
2015-Jul-01 04:33N 26°05' W 080°07'3 3.3
2015-Jul-01 03:33N 26°07' W 080°04'1212.3
2015-Jul-01 02:33N 26°19' W 080°02'1110.9
2015-Jul-01 01:33N 26°30' W 080°01'10 9.5
2015-Jul-01 00:33N 26°40' W 079°60'9 8.8
2015-Jun-30 23:30N 26°49' W 079°59'9 9.0
2015-Jun-30 22:33N 26°58' W 079°60'  

Dump ship's entire track history